Terminal Aerodrome Forecast
Issued by NWS Austin/San Antonio, TX

Home | Current Version | Previous Version | Text Only | Print | Product List | Glossary On
Versions: 1 2 3 4 5 6 7 8 9 10 11 12 13 14 15 16 17 18 19 20 21 22 23 24 25 26
000
FTUS44 KEWX 181246 AAB
TAFDRT
TAF AMD
KDRT 181246Z 1813/1912 35005KT P6SM VCSH BKN020
     FM181500 18005KT P6SM BKN025
     FM181700 18007KT P6SM SCT030 BKN150
     FM182200 14008KT P6SM BKN250
     FM190900 11004KT P6SM BKN020=

USA.gov is the U.S. government's official web portal to all federal, state and local government web resources and services.